Cloverdale, Michigan
Current Conditions -  °F | °C
As of 3:53 AM on Friday 31 Oct 2014 (Local Time) from KBTL Reporting Station
Overcast Overcast  
Wind Chill: 41°   Ceiling: 5500
Heat Index: 45°   Visibility: 10mi
Dew Point: 37°   Wind: 8mph
Humidity: 74%   Direction: 220°SW
Pressure: 29.94"   Gusts: NA
Location:  42.56°N, 85.43°W
Report Text: KBTL 310753Z 22007KT 10SM OVC055 07/03 A2994 RMK AO2 SLP143 T00720028
Loading
Personal Weather Stations






























Interactive Weather Map New forecast layout! Learn more

10-Day Weather Forecast

Advertisements
Track Severe Weather on mobile